createdAt,value
2019-02-27T00:02:00.000Z,99953
2019-02-27T00:07:00.000Z,99958
2019-02-27T00:12:00.000Z,99955
2019-02-27T00:17:00.000Z,99962
2019-02-27T00:22:00.000Z,99950
2019-02-27T00:27:00.000Z,99961
2019-02-27T00:32:00.000Z,99961
2019-02-27T00:37:00.000Z,99954
2019-02-27T00:42:00.000Z,99963
2019-02-27T00:47:00.000Z,99948
2019-02-27T00:52:00.000Z,99940
2019-02-27T00:57:00.000Z,99931
2019-02-27T01:02:00.000Z,99928
2019-02-27T01:07:00.000Z,99925
2019-02-27T01:12:00.000Z,99932
2019-02-27T01:17:00.000Z,99938
2019-02-27T01:22:00.000Z,99923
2019-02-27T01:27:00.000Z,99936
2019-02-27T01:32:00.000Z,99936
2019-02-27T01:37:00.000Z,99924
2019-02-27T01:42:00.000Z,99921
2019-02-27T01:47:00.000Z,99922
2019-02-27T01:52:00.000Z,99918
2019-02-27T01:57:00.000Z,99924
2019-02-27T02:02:00.000Z,99919
2019-02-27T02:07:00.000Z,99903
2019-02-27T02:12:00.000Z,99904
2019-02-27T02:17:00.000Z,99900
2019-02-27T02:22:00.000Z,99894
2019-02-27T02:27:00.000Z,99880
2019-02-27T02:32:00.000Z,99879
2019-02-27T02:37:00.000Z,99873
2019-02-27T02:42:00.000Z,99883
2019-02-27T02:47:00.000Z,99893
2019-02-27T02:52:00.000Z,99906
2019-02-27T02:57:00.000Z,99897
2019-02-27T03:02:00.000Z,99906
2019-02-27T03:08:00.000Z,99908
2019-02-27T03:13:00.000Z,99897
2019-02-27T03:18:00.000Z,99891
2019-02-27T03:23:00.000Z,99903
2019-02-27T03:28:00.000Z,99893
2019-02-27T03:33:00.000Z,99896
2019-02-27T03:38:00.000Z,99889
2019-02-27T03:43:00.000Z,99896
2019-02-27T03:48:00.000Z,99900
2019-02-27T03:53:00.000Z,99898
2019-02-27T03:58:00.000Z,99906
2019-02-27T04:03:00.000Z,99906
2019-02-27T04:08:00.000Z,99889
2019-02-27T04:13:00.000Z,99888
2019-02-27T04:18:00.000Z,99888
2019-02-27T04:23:00.000Z,99884
2019-02-27T04:28:00.000Z,99878
2019-02-27T04:33:00.000Z,99893
2019-02-27T04:38:00.000Z,99892
2019-02-27T04:43:00.000Z,99888
2019-02-27T04:48:00.000Z,99894
2019-02-27T04:53:00.000Z,99895
2019-02-27T04:58:00.000Z,99899
2019-02-27T05:03:00.000Z,99882
2019-02-27T05:08:00.000Z,99883
2019-02-27T05:13:00.000Z,99898
2019-02-27T05:18:00.000Z,99900
2019-02-27T05:23:00.000Z,99889
2019-02-27T05:28:00.000Z,99891
2019-02-27T05:33:00.000Z,99892
2019-02-27T05:38:00.000Z,99906
2019-02-27T05:43:00.000Z,99902
2019-02-27T05:48:00.000Z,99898
2019-02-27T05:53:00.000Z,99908
2019-02-27T05:58:00.000Z,99903
2019-02-27T06:03:00.000Z,99904
2019-02-27T06:09:00.000Z,99903
2019-02-27T06:14:00.000Z,99888
2019-02-27T06:19:00.000Z,99888
2019-02-27T06:24:00.000Z,99896
2019-02-27T06:29:00.000Z,99881
2019-02-27T06:34:00.000Z,99916
2019-02-27T06:39:00.000Z,99906
2019-02-27T06:44:00.000Z,99905
2019-02-27T06:49:00.000Z,99920
2019-02-27T06:54:00.000Z,99936
2019-02-27T06:59:00.000Z,99940
2019-02-27T07:04:00.000Z,99943
2019-02-27T07:09:00.000Z,99941
2019-02-27T07:14:00.000Z,99944
2019-02-27T07:19:00.000Z,99955
2019-02-27T07:24:00.000Z,99963
2019-02-27T07:29:00.000Z,99966
2019-02-27T07:34:00.000Z,99974
2019-02-27T07:39:00.000Z,99980
2019-02-27T07:44:00.000Z,99985
2019-02-27T07:49:00.000Z,99983
2019-02-27T07:54:00.000Z,99962
2019-02-27T07:59:00.000Z,99967
2019-02-27T08:04:00.000Z,99974
2019-02-27T08:09:00.000Z,99967
2019-02-27T08:14:00.000Z,99961
2019-02-27T08:19:00.000Z,99965
2019-02-27T08:24:00.000Z,99951
2019-02-27T08:29:00.000Z,99957
2019-02-27T08:34:00.000Z,99955
2019-02-27T08:39:00.000Z,99956
2019-02-27T08:44:00.000Z,99971
2019-02-27T08:49:00.000Z,99962
2019-02-27T08:54:00.000Z,99959
2019-02-27T08:59:00.000Z,99955
2019-02-27T09:04:00.000Z,99962
2019-02-27T09:09:00.000Z,99961
2019-02-27T09:14:00.000Z,99957
2019-02-27T09:19:00.000Z,99947
2019-02-27T09:24:00.000Z,99945
2019-02-27T09:29:00.000Z,99928
2019-02-27T09:35:00.000Z,99912
2019-02-27T09:40:00.000Z,99903
2019-02-27T09:45:00.000Z,99913
2019-02-27T09:50:00.000Z,99906
2019-02-27T09:55:00.000Z,99921
2019-02-27T10:00:00.000Z,99914
2019-02-27T10:05:00.000Z,99909
2019-02-27T10:10:00.000Z,99907
2019-02-27T10:15:00.000Z,99919
2019-02-27T10:20:00.000Z,99922
2019-02-27T10:25:00.000Z,99909
2019-02-27T10:30:00.000Z,99909
2019-02-27T10:35:00.000Z,99898
2019-02-27T10:40:00.000Z,99893
2019-02-27T10:45:00.000Z,99882
2019-02-27T10:50:00.000Z,99881
2019-02-27T10:55:00.000Z,99876
2019-02-27T11:00:00.000Z,99867
2019-02-27T11:05:00.000Z,99855
2019-02-27T11:10:00.000Z,99846
2019-02-27T11:15:00.000Z,99838
2019-02-27T11:20:00.000Z,99834
2019-02-27T11:25:00.000Z,99829
2019-02-27T11:30:00.000Z,99815
2019-02-27T11:35:00.000Z,99808
2019-02-27T11:40:00.000Z,99811
2019-02-27T11:45:00.000Z,99808
2019-02-27T11:50:00.000Z,99794
2019-02-27T11:55:00.000Z,99791
2019-02-27T12:00:00.000Z,99786
2019-02-27T12:05:00.000Z,99786
2019-02-27T12:10:00.000Z,99769
2019-02-27T12:15:00.000Z,99757
2019-02-27T12:20:00.000Z,99747
2019-02-27T12:25:00.000Z,99742
2019-02-27T12:30:00.000Z,99725
2019-02-27T12:35:00.000Z,99734
2019-02-27T12:40:00.000Z,99732
2019-02-27T12:45:00.000Z,99714
2019-02-27T12:51:00.000Z,99703
2019-02-27T12:56:00.000Z,99702
2019-02-27T13:01:00.000Z,99698
2019-02-27T13:06:00.000Z,99692
2019-02-27T13:11:00.000Z,99679
2019-02-27T13:16:00.000Z,99683
2019-02-27T13:21:00.000Z,99671
2019-02-27T13:26:00.000Z,99672
2019-02-27T13:31:00.000Z,99670
2019-02-27T13:36:00.000Z,99659
2019-02-27T13:41:00.000Z,99658
2019-02-27T13:46:00.000Z,99646
2019-02-27T13:51:00.000Z,99635
2019-02-27T13:56:00.000Z,99636
2019-02-27T14:01:00.000Z,99615
2019-02-27T14:06:00.000Z,99613
2019-02-27T14:11:00.000Z,99609
2019-02-27T14:16:00.000Z,99617
2019-02-27T14:21:00.000Z,99612
2019-02-27T14:26:00.000Z,99601
2019-02-27T14:31:00.000Z,99598
2019-02-27T14:36:00.000Z,99593
2019-02-27T14:41:00.000Z,99587
2019-02-27T14:46:00.000Z,99578
2019-02-27T14:51:00.000Z,99576
2019-02-27T14:56:00.000Z,99574
2019-02-27T15:01:00.000Z,99561
2019-02-27T15:06:00.000Z,99560
2019-02-27T15:11:00.000Z,99553
2019-02-27T15:16:00.000Z,99549
2019-02-27T15:21:00.000Z,99536
2019-02-27T15:26:00.000Z,99540
2019-02-27T15:31:00.000Z,99532
2019-02-27T15:36:00.000Z,99529
2019-02-27T15:42:00.000Z,99524
2019-02-27T15:47:00.000Z,99519
2019-02-27T15:52:00.000Z,99511
2019-02-27T15:57:00.000Z,99509
2019-02-27T16:02:00.000Z,99499
2019-02-27T16:07:00.000Z,99506
2019-02-27T16:12:00.000Z,99497
2019-02-27T16:17:00.000Z,99501
2019-02-27T16:22:00.000Z,99499
2019-02-27T16:27:00.000Z,99497
2019-02-27T16:32:00.000Z,99495
2019-02-27T16:37:00.000Z,99494
2019-02-27T16:42:00.000Z,99485
2019-02-27T16:47:00.000Z,99480
2019-02-27T16:52:00.000Z,99479
2019-02-27T16:57:00.000Z,99480
2019-02-27T17:02:00.000Z,99478
2019-02-27T17:07:00.000Z,99474
2019-02-27T17:12:00.000Z,99460
2019-02-27T17:17:00.000Z,99455
2019-02-27T17:22:00.000Z,99455
2019-02-27T17:27:00.000Z,99453
2019-02-27T17:32:00.000Z,99447
2019-02-27T17:37:00.000Z,99445
2019-02-27T17:42:00.000Z,99438
2019-02-27T17:47:00.000Z,99453
2019-02-27T17:52:00.000Z,99442
2019-02-27T17:57:00.000Z,99430
2019-02-27T18:02:00.000Z,99442
2019-02-27T18:07:00.000Z,99438
2019-02-27T18:12:00.000Z,99432
2019-02-27T18:17:00.000Z,99414
2019-02-27T18:22:00.000Z,99413
2019-02-27T18:27:00.000Z,99399
2019-02-27T18:32:00.000Z,99397
2019-02-27T18:37:00.000Z,99385
2019-02-27T18:42:00.000Z,99381
2019-02-27T18:47:00.000Z,99371
2019-02-27T18:52:00.000Z,99377
2019-02-27T18:57:00.000Z,99367
2019-02-27T19:03:00.000Z,99344
2019-02-27T19:08:00.000Z,99337
2019-02-27T19:13:00.000Z,99338
2019-02-27T19:18:00.000Z,99329
2019-02-27T19:23:00.000Z,99319
2019-02-27T19:28:00.000Z,99317
2019-02-27T19:33:00.000Z,99324
2019-02-27T19:38:00.000Z,99323
2019-02-27T19:43:00.000Z,99313
2019-02-27T19:48:00.000Z,99309
2019-02-27T19:53:00.000Z,99306
2019-02-27T19:58:00.000Z,99288
2019-02-27T20:03:00.000Z,99290
2019-02-27T20:08:00.000Z,99283
2019-02-27T20:13:00.000Z,99276
2019-02-27T20:18:00.000Z,99260
2019-02-27T20:23:00.000Z,99256
2019-02-27T20:28:00.000Z,99240
2019-02-27T20:33:00.000Z,99236
2019-02-27T20:38:00.000Z,99223
2019-02-27T20:43:00.000Z,99220
2019-02-27T20:48:00.000Z,99214
2019-02-27T20:53:00.000Z,99207
2019-02-27T20:58:00.000Z,99220
2019-02-27T21:03:00.000Z,99198
2019-02-27T21:08:00.000Z,99188
2019-02-27T21:13:00.000Z,99170
2019-02-27T21:18:00.000Z,99169
2019-02-27T21:23:00.000Z,99159
2019-02-27T21:28:00.000Z,99157
2019-02-27T21:33:00.000Z,99153
2019-02-27T21:38:00.000Z,99146
2019-02-27T21:44:00.000Z,99139
2019-02-27T21:49:00.000Z,99135
2019-02-27T21:54:00.000Z,99123
2019-02-27T21:59:00.000Z,99133
2019-02-27T22:04:00.000Z,99129
2019-02-27T22:09:00.000Z,99127
2019-02-27T22:14:00.000Z,99118
2019-02-27T22:24:00.000Z,99101
2019-02-27T22:29:00.000Z,99094
2019-02-27T22:35:00.000Z,99090
2019-02-27T22:40:00.000Z,99070
2019-02-27T22:45:00.000Z,99067
2019-02-27T22:50:00.000Z,99067
2019-02-27T22:55:00.000Z,99061
2019-02-27T23:00:00.000Z,99064
2019-02-27T23:05:00.000Z,99045
2019-02-27T23:10:00.000Z,99048
2019-02-27T23:15:00.000Z,99047
2019-02-27T23:20:00.000Z,99044
2019-02-27T23:25:00.000Z,99034
2019-02-27T23:30:00.000Z,99026
2019-02-27T23:35:00.000Z,99022
2019-02-27T23:40:00.000Z,99013
2019-02-27T23:45:00.000Z,99005
2019-02-27T23:50:00.000Z,99005
2019-02-27T23:55:00.000Z,99001
